Arlington, Vermont
Current Conditions -  °F | °C
As of 8:54 AM on Wednesday 22 Oct 2014 (Local Time) from KDDH Reporting Station
Overcast Overcast  
Wind Chill: 11°   Ceiling: 2200
Heat Index: 11°   Visibility: 10mi
Dew Point:   Wind: 3mph
Humidity: 74%   Direction: NA
Pressure: 30.06"   Gusts: NA
Location:  43.07°N, 73.15°W
Report Text: KDDH 221254Z AUTO VRB03KT 10SM OVC022 11/07 A3006 RMK AO2 SLP180 T01110067
Loading
Personal Weather Stations






























Interactive Weather Map
Tropical Storm Tracking
New forecast layout! Learn more

10-Day Weather Forecast

Advertisements
Track Severe Weather on mobile